Time;durP1;ratioP1;P1;durP2;ratioP2;P2;SDS_P1;SDS_P2;PMS_P1;PMS_P2;Temp;Humidity;BMP_temperature;BMP_pressure;BME280_temperature;BME280_humidity;BME280_pressure;Samples;Min_cycle;Max_cycle;Signal;HPM_P1;HPM_P2
2022/08/12 00:48:33;;;;;;;3.77;2.73;;;;;;;16.37;62.56;100774.47;30030562;29;96813;-61
2022/08/12 01:18:59;;;;;;;4.80;2.50;;;;;;;16.69;62.18;100766.84;30022140;29;97014;-61
2022/08/12 01:34:11;;;;;;;5.57;2.53;;;;;;;16.71;62.34;100762.94;30026435;29;96755;-61
2022/08/12 01:49:32;;;;;;;4.10;2.80;;;;;;;16.71;62.11;100768.31;30024908;29;96970;-61
2022/08/12 02:20:30;;;;;;;4.07;2.90;;;;;;;16.39;62.94;100775.13;30019658;29;96687;-61
2022/08/12 02:35:34;;;;;;;4.53;2.80;;;;;;;16.23;63.84;100771.66;30040805;29;97832;-62
2022/08/12 02:50:39;;;;;;;4.77;3.43;;;;;;;16.13;64.65;100764.94;30039655;29;96813;-61
2022/08/12 03:05:47;;;;;;;5.50;3.37;;;;;;;16.10;65.41;100760.78;30038344;29;97417;-61
2022/08/12 03:20:48;;;;;;;7.30;3.67;;;;;;;16.03;65.44;100751.84;30036296;29;97694;-61
2022/08/12 03:35:49;;;;;;;5.88;3.30;;;;;;;15.95;66.07;100749.28;30034755;29;96950;-61
2022/08/12 04:06:10;;;;;;;7.80;3.37;;;;;;;16.07;66.66;100756.66;30029680;29;96802;-62
2022/08/12 04:21:10;;;;;;;6.50;3.53;;;;;;;16.15;67.08;100785.25;30029541;29;96675;-61
2022/08/12 04:36:11;;;;;;;8.50;3.17;;;;;;;16.55;66.77;100792.81;30018454;29;100463;-62
2022/08/12 04:51:13;;;;;;;3.88;2.33;;;;;;;17.24;65.99;100799.31;30009838;29;97599;-60
2022/08/12 05:06:13;;;;;;;6.00;2.67;;;;;;;17.22;65.09;100780.66;30009423;29;96903;-61
2022/08/12 05:21:14;;;;;;;9.07;2.33;;;;;;;17.58;65.09;100757.19;30010213;29;96866;-61
2022/08/12 05:36:15;;;;;;;7.57;2.33;;;;;;;18.23;63.81;100757.53;30011233;29;98015;-62
2022/08/12 05:51:16;;;;;;;4.77;2.43;;;;;;;18.98;62.31;100755.59;30007388;29;96846;-63
2022/08/12 06:06:17;;;;;;;3.00;2.03;;;;;;;19.72;60.81;100756.91;30021252;29;97045;-63
2022/08/12 06:21:22;;;;;;;5.88;2.33;;;;;;;20.50;58.65;100771.13;30019221;29;96689;-63
2022/08/12 06:36:24;;;;;;;4.87;2.03;;;;;;;21.49;56.66;100759.47;30011889;29;97046;-61
2022/08/12 06:51:26;;;;;;;2.50;1.67;;;;;;;22.34;54.16;100775.78;30011853;29;97042;-61
2022/08/12 07:06:27;;;;;;;3.07;1.80;;;;;;;23.04;52.19;100765.97;30011132;29;97162;-61
2022/08/12 07:21:30;;;;;;;3.33;1.87;;;;;;;23.63;50.16;100755.78;30021018;29;97187;-60
2022/08/12 07:36:34;;;;;;;5.57;1.73;;;;;;;24.47;47.74;100747.94;30026018;29;98227;-62
2022/08/12 07:51:35;;;;;;;3.00;1.67;;;;;;;25.22;45.57;100748.41;30036405;29;97014;-61
2022/08/12 08:06:40;;;;;;;2.43;1.47;;;;;;;26.09;43.75;100745.78;30023338;29;97154;-63
2022/08/12 08:21:41;;;;;;;3.07;1.37;;;;;;;27.22;41.58;100736.63;30038622;29;97473;-63
2022/08/12 08:36:42;;;;;;;2.65;1.40;;;;;;;28.13;38.51;100737.06;30059915;29;99478;-62
2022/08/12 08:51:44;;;;;;;4.40;1.80;;;;;;;29.32;36.26;100738.41;30020005;28;99154;-62
2022/08/12 09:06:44;;;;;;;3.00;1.20;;;;;;;30.51;33.97;100732.81;30016548;29;98794;-61
2022/08/12 09:21:47;;;;;;;3.42;1.55;;;;;;;31.18;31.82;100733.97;30022388;29;107655;-63
2022/08/12 09:36:48;;;;;;;4.53;1.60;;;;;;;30.83;31.90;100728.59;30021156;29;98404;-62
2022/08/12 09:51:48;;;;;;;3.47;1.85;;;;;;;30.23;32.12;100715.22;30007257;29;96809;-64
2022/08/12 10:06:48;;;;;;;2.28;1.58;;;;;;;31.86;30.02;100693.31;30006923;29;98263;-62
2022/08/12 10:21:50;;;;;;;1.92;1.38;;;;;;;32.50;28.63;100677.00;30029848;29;97982;-63
2022/08/12 10:36:57;;;;;;;3.07;1.60;;;;;;;33.18;27.95;100677.22;29998599;29;97212;-64
2022/08/12 10:51:59;;;;;;;3.13;1.60;;;;;;;32.72;28.25;100657.00;30028682;29;97352;-62
2022/08/12 11:06:59;;;;;;;1.90;1.70;;;;;;;32.18;28.72;100647.59;30022461;29;96827;-62
2022/08/12 11:22:00;;;;;;;3.28;1.50;;;;;;;31.87;28.44;100640.66;30024874;28;97367;-62
2022/08/12 11:37:03;;;;;;;5.70;2.10;;;;;;;31.58;28.64;100627.13;30071759;29;96867;-62
2022/08/12 11:52:04;;;;;;;2.93;1.77;;;;;;;32.59;27.82;100610.94;30018798;29;97035;-61
2022/08/12 12:07:04;;;;;;;3.28;1.60;;;;;;;33.28;27.18;100598.09;30015794;29;96860;-62
2022/08/12 12:22:04;;;;;;;3.25;1.65;;;;;;;32.85;27.26;100591.09;30016474;29;97999;-63
2022/08/12 12:37:09;;;;;;;2.83;1.70;;;;;;;32.46;27.35;100586.94;29999593;29;111702;-61
2022/08/12 12:52:10;;;;;;;2.30;1.37;;;;;;;32.35;26.70;100578.06;30012013;29;98035;-61
2022/08/12 13:07:10;;;;;;;3.85;1.88;;;;;;;32.07;27.57;100583.56;30010220;29;105989;-62
2022/08/12 13:22:19;;;;;;;4.60;1.60;;;;;;;32.27;27.30;100567.75;30012483;29;99843;-62
2022/08/12 13:37:25;;;;;;;3.90;1.83;;;;;;;32.30;27.22;100556.13;30020461;29;97445;-61
2022/08/12 13:52:25;;;;;;;2.43;1.77;;;;;;;32.04;27.30;100537.31;30018971;29;97223;-61
2022/08/12 14:07:26;;;;;;;3.88;1.80;;;;;;;31.74;27.55;100520.31;30016605;29;96841;-62
2022/08/12 14:22:26;;;;;;;3.15;1.95;;;;;;;31.37;27.44;100525.63;30015007;29;96984;-62
2022/08/12 14:37:27;;;;;;;2.95;1.73;;;;;;;30.95;28.42;100510.88;30014655;29;96866;-61
2022/08/12 14:52:27;;;;;;;2.63;1.88;;;;;;;30.52;28.74;100500.00;30014380;29;97953;-61
2022/08/12 15:07:28;;;;;;;3.22;1.80;;;;;;;29.97;29.54;100487.50;30013581;29;98088;-60
2022/08/12 15:22:28;;;;;;;3.53;1.90;;;;;;;29.30;29.68;100484.63;30006991;29;96753;-60
2022/08/12 15:37:29;;;;;;;3.53;2.20;;;;;;;28.93;30.97;100486.03;30012507;29;98446;-60
2022/08/12 15:52:29;;;;;;;4.43;2.65;;;;;;;28.79;31.50;100480.38;30022273;29;102262;-62
2022/08/12 16:07:30;;;;;;;3.63;2.50;;;;;;;28.22;31.85;100464.25;30025091;29;97565;-62
2022/08/12 16:22:30;;;;;;;3.92;2.80;;;;;;;27.74;33.14;100461.16;30025561;29;97201;-62
2022/08/12 16:37:32;;;;;;;3.72;2.78;;;;;;;27.38;34.75;100456.59;30014966;29;97227;-61
2022/08/12 16:52:34;;;;;;;4.87;3.17;;;;;;;27.16;35.73;100451.38;30015134;29;97228;-63
2022/08/12 17:07:37;;;;;;;4.77;3.00;;;;;;;27.01;35.90;100433.91;30015127;29;97352;-60
2022/08/12 17:22:39;;;;;;;4.10;3.17;;;;;;;26.81;36.72;100426.53;30037075;29;98543;-60
2022/08/12 17:37:39;;;;;;;4.17;2.77;;;;;;;26.47;37.56;100428.94;30122677;28;97120;-62
2022/08/12 17:52:40;;;;;;;6.85;2.83;;;;;;;26.04;38.60;100431.00;30077575;29;97831;-62
2022/08/12 18:07:42;;;;;;;6.80;3.53;;;;;;;25.35;39.57;100441.81;30017012;29;97096;-61
2022/08/12 18:22:45;;;;;;;4.77;3.00;;;;;;;24.73;41.05;100454.09;30018205;29;96806;-61
2022/08/12 18:37:45;;;;;;;5.37;3.20;;;;;;;24.16;42.66;100465.22;30017810;29;97471;-61
2022/08/12 18:52:46;;;;;;;4.45;3.42;;;;;;;23.86;44.05;100470.25;30004194;29;97902;-61
2022/08/12 19:07:51;;;;;;;6.78;3.50;;;;;;;23.49;45.14;100458.88;30101295;29;98273;-61
2022/08/12 19:22:52;;;;;;;6.60;4.13;;;;;;;23.21;46.71;100478.00;30057824;28;97359;-61
2022/08/12 19:37:56;;;;;;;6.28;5.22;;;;;;;23.11;47.41;100486.78;30023915;29;97299;-64
2022/08/12 19:52:58;;;;;;;7.00;4.30;;;;;;;22.76;48.33;100485.94;30019359;29;97392;-62
2022/08/12 20:07:58;;;;;;;7.00;4.70;;;;;;;22.41;49.68;100472.53;29975792;29;99030;-64
2022/08/12 20:22:59;;;;;;;5.72;5.00;;;;;;;22.12;51.25;100475.19;30013860;29;97494;-61
2022/08/12 20:37:59;;;;;;;9.38;5.22;;;;;;;21.53;52.73;100478.81;30012501;29;97138;-61
2022/08/12 20:53:00;;;;;;;6.17;5.33;;;;;;;21.23;54.74;100490.53;30013825;29;102369;-62
2022/08/12 21:08:01;;;;;;;7.67;5.83;;;;;;;21.52;55.60;100487.16;30030597;29;96752;-65
2022/08/12 21:23:03;;;;;;;7.83;5.97;;;;;;;21.54;55.57;100495.88;30091013;29;96888;-60
2022/08/12 21:38:04;;;;;;;6.80;6.10;;;;;;;21.72;56.43;100489.50;30139744;29;96776;-60
2022/08/12 21:53:04;;;;;;;6.80;5.97;;;;;;;21.92;56.41;100479.09;30139693;28;97242;-60
2022/08/12 22:08:05;;;;;;;7.47;6.67;;;;;;;22.07;56.74;100470.47;30136983;28;97138;-64
2022/08/12 22:23:06;;;;;;;7.10;6.40;;;;;;;21.88;56.83;100467.09;30136723;29;97229;-62
2022/08/12 22:38:18;;;;;;;9.90;6.77;;;;;;;21.44;57.71;100472.06;30136366;28;96844;-62
2022/08/12 22:53:19;;;;;;;11.50;7.17;;;;;;;21.05;59.46;100466.22;30156464;28;97343;-62
2022/08/12 23:08:21;;;;;;;7.70;6.77;;;;;;;20.94;60.09;100470.56;30154494;28;96746;-61
2022/08/12 23:23:22;;;;;;;10.33;7.17;;;;;;;20.81;61.13;100433.72;30153440;28;96775;-61
2022/08/12 23:38:22;;;;;;;9.00;8.10;;;;;;;20.74;61.69;100433.81;30151871;28;97282;-61
2022/08/12 23:53:25;;;;;;;10.75;7.90;;;;;;;20.56;62.54;100425.75;30150525;28;99604;-61
